Elm Grove, LA (71051)

2:25 AM CST on December 19, 2014 (GMT -0600)
South Bossier AeroWx | Change Station
CLOSE
Current Station
Personal Weather Station
Location: Bossier City, LA
Elevation: 187 ft
Nearby Weather Stations

Elev 187 ft 32.46 °N, 93.65 °W | Updated 27 seconds ago

Overcast
Overcast
50.2 °F
Feels Like 50.2 °F
N
0.4
Wind Variable Wind from ESE
Gusts 2.5 mph

Today
High -- | Low -- °F
--% Chance of Precip.
Yesterday
High -- | Low -- °F
Precip. -- in
7:10 AM 5:12 PM
Waning Crescent, 9% visible
Pressure 30.13 in
Visibility 10.0 miles
Clouds Overcast 700 ft
Dew Point 50 °F
Humidity 99%
Rainfall 0.00 in
Snow Depth Not available.
UV 0 out of 12
Pollen .40 out of 12
Air Quality Not available.
Flu Activity Not available.
METAR KDTN 190753Z AUTO 06004KT 10SM OVC007 09/08 A3013 RMK AO2 SLP202 T00940078

More Conditions Fewer Conditions

Pressure 30.13 in
Visibility 10.0 miles
Clouds Overcast 700 ft
Dew Point 50 °F
Humidity 99%
Rainfall 0.00 in
Snow Depth Not available.
UV 0 out of 12
Pollen .40 out of 12
Air Quality Not available.
Flu Activity Not available.
METAR KDTN 190753Z AUTO 06004KT 10SM OVC007 09/08 A3013 RMK AO2 SLP202 T00940078

More Conditions Fewer Conditions

10-Day Weather Forecast

Almanac

Astronomy

Dec. 19, 2014 Rise Set
Actual Time
Civil Twilight
Nautical Twilight
Astronomical Twilight
Moon
Length of Visible Light
Length of Day
Tomorrow will be .
, % of the Moon is Illuminated

Today's Extremes

State Highs State Lows

Community

WunderPhotos

Upload Photos

1,778,953 photos uploaded!

WunderBlogs® & News

Nearby

Air Quality

  Air Quality AQ Index Pollutant
Not available.

Snow Depth

Station Depth Elevation

Earthquake Activity

City Distance Mag. Time & Date
Minimum magnitude displayed is 2.5.

Coastal Water Temperatures

Place Temperature

Nearby Weather Stations